Pagina principale
METAR-TAF:

METAR-TAF

Aeroporti :

Aeroporto di Parigi Charles de Gaulle

Parigi-Charles De Gaulle, Francia

latitudine: 49-01N, longitudine: 002-32E, altezza: 118 m

Osservazione

Il bollettino è stato emesso 42 minuti fa, alle 16:00 UTC
Vento 11 kt da est/nord-est, variando fra nord/nord-est e est/sud-est
Temperature 22°C
Umidità 33%
Pressione 1018 hPa
Visibilità: 3800 m

METAR: LFPG 311600Z AUTO 06011KT 020V110 9999 3800 NSC 22/05 Q1018 NOSIG

Ora: 18:42 (16:42 UTC)

Previsione

Il bollettino è stato emesso 5 ore e 42 minuti fa, alle 11:00 UTC
Previsione valida dal 31 alle 12 UTC al 01 alle 18 UTC
Vento 10 kt da est/nord-est
Visibilità 10 km o più
nessuna nube inferiore a 1500 m e nessun cumulonembo
Probabilità 30% :
Temporaneamente
dal 31 alle 12 UTC al 31 alle 15 UTC
Vento 15 kt da est con raffiche fino a 25 kt

TAF: LFPG 311100Z 3112/0118 07010KT CAVOK TX26/0115Z TN13/0104Z PROB30 TEMPO 3112/3115 09015G25KT

Osservazioni e previsioni meteorologiche di più di 4000 aeroporti (messaggi METAR e TAF).

Le stazioni disponibili sono rappresentate dai dischi gialli e rossi sulla carta.

Puntare il mouse per vedere il nome della stazione.

Clicca sopra per visualizzare le osservazioni e previsioni meteorologiche.

Per cambiare la mappa : fare clic sui pulsanti verdi con una croce nera per ingrandire, il pulsante verde con un trattino per diminuire, o sulla freccia verde per le mappe adiacenti.


METAR-TAF: